sensor_id;sensor_type;location;lat;lon;timestamp;pressure;altitude;pressure_sealevel;temperature;humidity
74637;BME280;63141;54.616;39.754;2023-04-01T00:00:10;98843.63;;;24.95;37.01
74637;BME280;63141;54.616;39.754;2023-04-01T00:03:15;98851.81;;;24.92;37.39
74637;BME280;63141;54.616;39.754;2023-04-01T00:06:28;98843.31;;;24.87;37.10
74637;BME280;63141;54.616;39.754;2023-04-01T00:09:29;98849.72;;;24.84;36.95
74637;BME280;63141;54.616;39.754;2023-04-01T00:12:37;98845.47;;;24.82;36.94
74637;BME280;63141;54.616;39.754;2023-04-01T00:15:41;98845.69;;;24.79;37.40
74637;BME280;63141;54.616;39.754;2023-04-01T00:18:46;98840.56;;;24.76;37.16
74637;BME280;63141;54.616;39.754;2023-04-01T00:21:51;98844.19;;;24.75;37.14
74637;BME280;63141;54.616;39.754;2023-04-01T00:24:53;98850.59;;;24.72;37.30
74637;BME280;63141;54.616;39.754;2023-04-01T00:28:03;98845.47;;;24.69;37.35
74637;BME280;63141;54.616;39.754;2023-04-01T00:31:07;98850.94;;;24.67;37.05
74637;BME280;63141;54.616;39.754;2023-04-01T00:34:12;98847.50;;;24.65;37.02
74637;BME280;63141;54.616;39.754;2023-04-01T00:37:27;98846.78;;;24.63;37.38
74637;BME280;63141;54.616;39.754;2023-04-01T00:40:31;98857.50;;;24.62;37.06
74637;BME280;63141;54.616;39.754;2023-04-01T00:43:36;98852.41;;;24.59;37.31
74637;BME280;63141;54.616;39.754;2023-04-01T00:46:46;98847.19;;;24.57;37.30
74637;BME280;63141;54.616;39.754;2023-04-01T00:49:50;98851.78;;;24.55;36.98
74637;BME280;63141;54.616;39.754;2023-04-01T00:53:02;98858.06;;;24.54;37.46
74637;BME280;63141;54.616;39.754;2023-04-01T00:56:21;98854.66;;;24.52;37.21
74637;BME280;63141;54.616;39.754;2023-04-01T00:59:29;98856.56;;;24.50;37.19
74637;BME280;63141;54.616;39.754;2023-04-01T01:02:33;98861.91;;;24.50;37.18
74637;BME280;63141;54.616;39.754;2023-04-01T01:16:26;98847.19;;;24.44;36.94
74637;BME280;63141;54.616;39.754;2023-04-01T01:37:00;98862.50;;;24.41;37.06
74637;BME280;63141;54.616;39.754;2023-04-01T01:40:06;98862.50;;;24.41;37.17
74637;BME280;63141;54.616;39.754;2023-04-01T01:43:12;98862.50;;;24.41;37.13
74637;BME280;63141;54.616;39.754;2023-04-01T01:46:19;98864.41;;;24.39;36.87
74637;BME280;63141;54.616;39.754;2023-04-01T01:49:26;98864.41;;;24.39;37.10
74637;BME280;63141;54.616;39.754;2023-04-01T01:52:34;98869.75;;;24.39;37.05
74637;BME280;63141;54.616;39.754;2023-04-01T01:55:39;98863.56;;;24.38;37.01
74637;BME280;63141;54.616;39.754;2023-04-01T01:58:44;98872.53;;;24.37;36.97
74637;BME280;63141;54.616;39.754;2023-04-01T02:01:56;98873.38;;;24.38;36.98
74637;BME280;63141;54.616;39.754;2023-04-01T02:05:07;98863.66;;;24.37;36.84
74637;BME280;63141;54.616;39.754;2023-04-01T02:08:20;98873.38;;;24.38;37.17
74637;BME280;63141;54.616;39.754;2023-04-01T02:11:36;98867.22;;;24.37;36.69
74637;BME280;63141;54.616;39.754;2023-04-01T02:17:50;98876.97;;;24.37;37.07
74637;BME280;63141;54.616;39.754;2023-04-01T02:20:57;98870.81;;;24.36;36.78
74637;BME280;63141;54.616;39.754;2023-04-01T02:24:04;98872.63;;;24.36;36.69
74637;BME280;63141;54.616;39.754;2023-04-01T02:27:09;98866.56;;;24.34;36.93
74637;BME280;63141;54.616;39.754;2023-04-01T02:30:14;98873.56;;;24.35;36.80
74637;BME280;63141;54.616;39.754;2023-04-01T02:33:19;98871.03;;;24.33;36.82
74637;BME280;63141;54.616;39.754;2023-04-01T02:36:25;98876.34;;;24.33;36.89
74637;BME280;63141;54.616;39.754;2023-04-01T02:39:29;98882.53;;;24.34;36.85
74637;BME280;63141;54.616;39.754;2023-04-01T02:42:34;98879.84;;;24.34;36.68
74637;BME280;63141;54.616;39.754;2023-04-01T02:45:35;98879.97;;;24.32;37.04
74637;BME280;63141;54.616;39.754;2023-04-01T02:48:37;98881.78;;;24.32;36.76
74637;BME280;63141;54.616;39.754;2023-04-01T02:51:38;98889.75;;;24.32;36.82
74637;BME280;63141;54.616;39.754;2023-04-01T02:54:42;98893.38;;;24.31;36.81
74637;BME280;63141;54.616;39.754;2023-04-01T02:57:46;98896.03;;;24.31;36.56
74637;BME280;63141;54.616;39.754;2023-04-01T03:00:50;98912.94;;;24.30;36.55
74637;BME280;63141;54.616;39.754;2023-04-01T03:03:52;98912.94;;;24.30;36.92
74637;BME280;63141;54.616;39.754;2023-04-01T03:06:59;98920.94;;;24.30;36.87
74637;BME280;63141;54.616;39.754;2023-04-01T03:10:00;98928.06;;;24.29;36.52
74637;BME280;63141;54.616;39.754;2023-04-01T03:13:04;98921.06;;;24.28;36.50
74637;BME280;63141;54.616;39.754;2023-04-01T03:16:06;98927.22;;;24.29;36.51
74637;BME280;63141;54.616;39.754;2023-04-01T03:19:08;98929.97;;;24.27;36.80
74637;BME280;63141;54.616;39.754;2023-04-01T03:22:10;98929.13;;;24.27;36.53
74637;BME280;63141;54.616;39.754;2023-04-01T03:25:12;98933.47;;;24.28;36.84
74637;BME280;63141;54.616;39.754;2023-04-01T03:28:14;98930.81;;;24.28;36.88
74637;BME280;63141;54.616;39.754;2023-04-01T03:31:19;98927.41;;;24.25;36.37
74637;BME280;63141;54.616;39.754;2023-04-01T03:34:26;98933.63;;;24.26;36.39
74637;BME280;63141;54.616;39.754;2023-04-01T03:37:33;98937.13;;;24.27;36.40
74637;BME280;63141;54.616;39.754;2023-04-01T03:40:34;98932.72;;;24.25;36.75
74637;BME280;63141;54.616;39.754;2023-04-01T03:43:38;98943.38;;;24.25;36.73
74637;BME280;63141;54.616;39.754;2023-04-01T03:46:42;98941.69;;;24.24;36.74
74637;BME280;63141;54.616;39.754;2023-04-01T03:49:46;98941.69;;;24.24;36.51
74637;BME280;63141;54.616;39.754;2023-04-01T03:52:47;98934.69;;;24.23;36.51
74637;BME280;63141;54.616;39.754;2023-04-01T03:55:55;98946.16;;;24.24;36.51
74637;BME280;63141;54.616;39.754;2023-04-01T03:59:06;98934.69;;;24.23;36.67
74637;BME280;63141;54.616;39.754;2023-04-01T04:02:10;98950.63;;;24.23;36.44
74637;BME280;63141;54.616;39.754;2023-04-01T04:05:12;98950.63;;;24.23;36.33
74637;BME280;63141;54.616;39.754;2023-04-01T04:08:19;98951.56;;;24.22;36.84
74637;BME280;63141;54.616;39.754;2023-04-01T04:11:23;98953.38;;;24.22;36.36
74637;BME280;63141;54.616;39.754;2023-04-01T04:14:26;98957.88;;;24.21;36.56
74637;BME280;63141;54.616;39.754;2023-04-01T04:17:30;98952.53;;;24.21;36.63
74637;BME280;63141;54.616;39.754;2023-04-01T04:20:44;98957.88;;;24.21;36.56
74637;BME280;63141;54.616;39.754;2023-04-01T04:23:52;98956.16;;;24.20;36.52
74637;BME280;63141;54.616;39.754;2023-04-01T04:26:55;98965.09;;;24.19;36.62
74637;BME280;63141;54.616;39.754;2023-04-01T04:29:56;98969.44;;;24.20;36.38
74637;BME280;63141;54.616;39.754;2023-04-01T04:32:58;98966.78;;;24.20;36.41
74637;BME280;63141;54.616;39.754;2023-04-01T04:36:00;98969.53;;;24.19;36.36
74637;BME280;63141;54.616;39.754;2023-04-01T04:39:04;98976.59;;;24.20;36.52
74637;BME280;63141;54.616;39.754;2023-04-01T04:42:08;98984.56;;;24.20;36.62
74637;BME280;63141;54.616;39.754;2023-04-01T04:45:10;98974.00;;;24.18;36.28
74637;BME280;63141;54.616;39.754;2023-04-01T04:48:27;98984.66;;;24.18;36.66
74637;BME280;63141;54.616;39.754;2023-04-01T04:51:28;98988.28;;;24.17;36.38
74637;BME280;63141;54.616;39.754;2023-04-01T04:54:29;98985.63;;;24.17;36.30
74637;BME280;63141;54.616;39.754;2023-04-01T04:57:41;98982.97;;;24.17;36.66
74637;BME280;63141;54.616;39.754;2023-04-01T05:00:54;98991.88;;;24.16;36.44
74637;BME280;63141;54.616;39.754;2023-04-01T05:04:11;98996.28;;;24.17;36.25
74637;BME280;63141;54.616;39.754;2023-04-01T05:07:15;99003.50;;;24.15;36.23
74637;BME280;63141;54.616;39.754;2023-04-01T05:10:22;99002.53;;;24.16;36.51
74637;BME280;63141;54.616;39.754;2023-04-01T05:13:36;99013.16;;;24.16;36.51
74637;BME280;63141;54.616;39.754;2023-04-01T05:16:46;99017.63;;;24.16;36.43
74637;BME280;63141;54.616;39.754;2023-04-01T05:19:53;99021.28;;;24.15;36.14
74637;BME280;63141;54.616;39.754;2023-04-01T05:22:58;99028.38;;;24.14;36.13
74637;BME280;63141;54.616;39.754;2023-04-01T05:26:08;99026.59;;;24.15;36.06
74637;BME280;63141;54.616;39.754;2023-04-01T05:29:13;99031.03;;;24.14;35.93
74637;BME280;63141;54.616;39.754;2023-04-01T05:32:24;99030.09;;;24.15;36.23
74637;BME280;63141;54.616;39.754;2023-04-01T05:35:32;99040.72;;;24.15;36.43
74637;BME280;63141;54.616;39.754;2023-04-01T05:38:49;99036.34;;;24.14;36.24
74637;BME280;63141;54.616;39.754;2023-04-01T05:41:53;99039.97;;;24.13;36.42
74637;BME280;63141;54.616;39.754;2023-04-01T05:45:09;99035.72;;;24.11;36.06
74637;BME280;63141;54.616;39.754;2023-04-01T05:48:29;99040.19;;;24.10;35.87
74637;BME280;63141;54.616;39.754;2023-04-01T05:51:34;99033.06;;;24.11;36.13
74637;BME280;63141;54.616;39.754;2023-04-01T05:54:38;99038.38;;;24.11;35.72
74637;BME280;63141;54.616;39.754;2023-04-01T05:57:39;99042.84;;;24.10;36.04
74637;BME280;63141;54.616;39.754;2023-04-01T06:00:46;99045.50;;;24.10;36.07
74637;BME280;63141;54.616;39.754;2023-04-01T06:03:50;99049.97;;;24.10;35.73
74637;BME280;63141;54.616;39.754;2023-04-01T06:07:00;99052.53;;;24.11;35.60
74637;BME280;63141;54.616;39.754;2023-04-01T06:10:19;99062.41;;;24.09;35.92
74637;BME280;63141;54.616;39.754;2023-04-01T06:20:37;99077.31;;;23.85;33.94
74637;BME280;63141;54.616;39.754;2023-04-01T06:24:26;99074.44;;;23.73;33.78
74637;BME280;63141;54.616;39.754;2023-04-01T06:30:44;99086.53;;;23.50;33.17
74637;BME280;63141;54.616;39.754;2023-04-01T06:41:12;99090.56;;;23.13;32.38
74637;BME280;63141;54.616;39.754;2023-04-01T06:58:52;99123.22;;;22.85;32.15
74637;BME280;63141;54.616;39.754;2023-04-01T07:02:19;99124.59;;;22.76;32.10
74637;BME280;63141;54.616;39.754;2023-04-01T07:05:30;99125.44;;;22.76;32.37
74637;BME280;63141;54.616;39.754;2023-04-01T07:08:44;99128.22;;;22.75;32.38
74637;BME280;63141;54.616;39.754;2023-04-01T07:12:06;99131.03;;;22.72;32.37
74637;BME280;63141;54.616;39.754;2023-04-01T07:19:31;99133.28;;;22.64;31.75
74637;BME280;63141;54.616;39.754;2023-04-01T07:22:52;99141.41;;;22.61;31.71
74637;BME280;63141;54.616;39.754;2023-04-01T07:26:54;99135.59;;;22.54;31.42
74637;BME280;63141;54.616;39.754;2023-04-01T07:30:06;99135.19;;;22.46;31.36
74637;BME280;63141;54.616;39.754;2023-04-01T07:50:44;99168.06;;;22.27;30.72
74637;BME280;63141;54.616;39.754;2023-04-01T07:54:21;99168.91;;;22.28;30.69
74637;BME280;63141;54.616;39.754;2023-04-01T07:57:48;99170.91;;;22.24;30.50
74637;BME280;63141;54.616;39.754;2023-04-01T08:01:14;99172.81;;;22.21;30.58
74637;BME280;63141;54.616;39.754;2023-04-01T08:12:05;99191.91;;;22.11;30.23
74637;BME280;63141;54.616;39.754;2023-04-01T08:16:18;99201.78;;;22.08;30.24
74637;BME280;63141;54.616;39.754;2023-04-01T08:26:45;99207.00;;;22.27;31.24
74637;BME280;63141;54.616;39.754;2023-04-01T08:29:58;99202.56;;;22.43;32.16
74637;BME280;63141;54.616;39.754;2023-04-01T08:33:32;99204.16;;;22.62;32.64
74637;BME280;63141;54.616;39.754;2023-04-01T08:36:52;99208.88;;;22.72;33.04
74637;BME280;63141;54.616;39.754;2023-04-01T08:40:28;99209.97;;;22.84;33.35
74637;BME280;63141;54.616;39.754;2023-04-01T08:43:59;99219.09;;;22.94;33.59
74637;BME280;63141;54.616;39.754;2023-04-01T08:47:29;99216.06;;;23.02;34.55
74637;BME280;63141;54.616;39.754;2023-04-01T09:30:48;99250.25;;;23.53;35.63
74637;BME280;63141;54.616;39.754;2023-04-01T09:34:26;99256.34;;;23.55;35.63
74637;BME280;63141;54.616;39.754;2023-04-01T09:41:36;99249.97;;;23.57;35.65
74637;BME280;63141;54.616;39.754;2023-04-01T10:11:00;99259.81;;;24.00;36.03
74637;BME280;63141;54.616;39.754;2023-04-01T10:46:54;99269.91;;;23.95;36.04
74637;BME280;63141;54.616;39.754;2023-04-01T11:05:28;99277.78;;;23.96;35.94
74637;BME280;63141;54.616;39.754;2023-04-01T11:27:30;99287.75;;;23.93;36.38
74637;BME280;63141;54.616;39.754;2023-04-01T12:07:32;99316.25;;;23.91;37.28
74637;BME280;63141;54.616;39.754;2023-04-01T12:14:44;99315.38;;;23.90;36.87
74637;BME280;63141;54.616;39.754;2023-04-01T12:18:11;99321.56;;;23.91;37.15
74637;BME280;63141;54.616;39.754;2023-04-01T12:21:26;99316.25;;;23.91;36.81
74637;BME280;63141;54.616;39.754;2023-04-01T12:31:38;99334.00;;;23.90;36.53
74637;BME280;63141;54.616;39.754;2023-04-01T12:35:13;99326.03;;;23.90;36.83
74637;BME280;63141;54.616;39.754;2023-04-01T12:52:59;99335.81;;;23.90;36.67
74637;BME280;63141;54.616;39.754;2023-04-01T13:18:45;99368.78;;;23.87;36.23
74637;BME280;63141;54.616;39.754;2023-04-01T13:25:40;99367.88;;;23.87;36.43
74637;BME280;63141;54.616;39.754;2023-04-01T13:32:28;99370.56;;;23.87;36.32
74637;BME280;63141;54.616;39.754;2023-04-01T13:43:02;99381.19;;;23.87;36.15
74637;BME280;63141;54.616;39.754;2023-04-01T14:03:30;99417.69;;;23.85;36.27
74637;BME280;63141;54.616;39.754;2023-04-01T14:10:32;99419.47;;;23.84;36.03
74637;BME280;63141;54.616;39.754;2023-04-01T14:17:54;99440.84;;;23.82;36.13
74637;BME280;63141;54.616;39.754;2023-04-01T14:38:35;99470.16;;;23.81;35.94
74637;BME280;63141;54.616;39.754;2023-04-01T14:49:17;99478.22;;;23.79;35.94
74637;BME280;63141;54.616;39.754;2023-04-01T14:52:33;99476.53;;;23.78;35.94
74637;BME280;63141;54.616;39.754;2023-04-01T14:55:58;99480.03;;;23.79;35.88
74637;BME280;63141;54.616;39.754;2023-04-01T15:48:45;99527.97;;;23.77;35.83
74637;BME280;63141;54.616;39.754;2023-04-01T15:52:39;99532.44;;;23.77;35.80
74637;BME280;63141;54.616;39.754;2023-04-01T16:03:38;99542.22;;;23.76;35.48
74637;BME280;63141;54.616;39.754;2023-04-01T16:21:05;99551.44;;;23.53;34.53
74637;BME280;63141;54.616;39.754;2023-04-01T16:24:34;99559.06;;;23.44;34.42
74637;BME280;63141;54.616;39.754;2023-04-01T16:35:23;99564.25;;;23.29;34.38
74637;BME280;63141;54.616;39.754;2023-04-01T16:49:29;99576.50;;;23.16;33.94
74637;BME280;63141;54.616;39.754;2023-04-01T16:52:54;99570.25;;;23.17;34.60
74637;BME280;63141;54.616;39.754;2023-04-01T16:56:20;99568.78;;;23.27;34.97
74637;BME280;63141;54.616;39.754;2023-04-01T17:03:35;99577.00;;;23.56;35.24
74637;BME280;63141;54.616;39.754;2023-04-01T17:17:58;99591.78;;;23.93;35.72
74637;BME280;63141;54.616;39.754;2023-04-01T17:21:17;99595.94;;;23.99;35.72
74637;BME280;63141;54.616;39.754;2023-04-01T17:32:06;99604.75;;;24.15;36.15
74637;BME280;63141;54.616;39.754;2023-04-01T17:42:07;99619.22;;;24.25;36.17
74637;BME280;63141;54.616;39.754;2023-04-01T17:45:46;99614.69;;;24.28;36.29
74637;BME280;63141;54.616;39.754;2023-04-01T17:49:39;99623.44;;;24.30;36.63
74637;BME280;63141;54.616;39.754;2023-04-01T18:04:26;99633.31;;;24.28;35.75
74637;BME280;63141;54.616;39.754;2023-04-01T18:07:59;99638.81;;;24.24;35.73
74637;BME280;63141;54.616;39.754;2023-04-01T18:11:56;99626.56;;;24.22;35.55
74637;BME280;63141;54.616;39.754;2023-04-01T18:29:53;99639.69;;;24.09;35.14
74637;BME280;63141;54.616;39.754;2023-04-01T18:33:23;99635.19;;;24.10;35.40
74637;BME280;63141;54.616;39.754;2023-04-01T18:37:23;99637.13;;;24.08;35.30
74637;BME280;63141;54.616;39.754;2023-04-01T18:40:36;99645.09;;;24.08;35.09
74637;BME280;63141;54.616;39.754;2023-04-01T18:44:03;99645.19;;;24.06;35.21
74637;BME280;63141;54.616;39.754;2023-04-01T19:05:42;99649.13;;;23.99;34.94
74637;BME280;63141;54.616;39.754;2023-04-01T19:16:53;99648.34;;;23.97;35.05
74637;BME280;63141;54.616;39.754;2023-04-01T19:20:38;99656.31;;;23.97;35.51
74637;BME280;63141;54.616;39.754;2023-04-01T19:27:53;99656.50;;;23.94;35.14
74637;BME280;63141;54.616;39.754;2023-04-01T19:49:30;99665.59;;;23.90;35.48
74637;BME280;63141;54.616;39.754;2023-04-01T19:52:41;99670.91;;;23.90;35.50
74637;BME280;63141;54.616;39.754;2023-04-01T19:56:20;99675.38;;;23.89;35.71
74637;BME280;63141;54.616;39.754;2023-04-01T20:03:50;99672.78;;;23.88;35.59
74637;BME280;63141;54.616;39.754;2023-04-01T20:17:47;99688.94;;;23.85;35.91
74637;BME280;63141;54.616;39.754;2023-04-01T20:21:02;99690.63;;;23.86;35.98
74637;BME280;63141;54.616;39.754;2023-04-01T20:24:36;99698.63;;;23.86;36.05
74637;BME280;63141;54.616;39.754;2023-04-01T20:31:29;99704.88;;;23.85;36.22
74637;BME280;63141;54.616;39.754;2023-04-01T20:52:25;99703.16;;;23.83;36.00
74637;BME280;63141;54.616;39.754;2023-04-01T21:28:01;99738.50;;;23.86;36.74
74637;BME280;63141;54.616;39.754;2023-04-01T21:31:31;99742.97;;;23.85;36.68
74637;BME280;63141;54.616;39.754;2023-04-01T21:34:43;99743.81;;;23.86;36.61
74637;BME280;63141;54.616;39.754;2023-04-01T22:13:23;99761.47;;;23.87;36.74
74637;BME280;63141;54.616;39.754;2023-04-01T22:16:42;99760.63;;;23.86;36.67
74637;BME280;63141;54.616;39.754;2023-04-01T22:26:40;99772.06;;;23.88;36.67
74637;BME280;63141;54.616;39.754;2023-04-01T22:37:03;99779.19;;;23.88;36.76
74637;BME280;63141;54.616;39.754;2023-04-01T22:43:44;99794.19;;;23.89;37.02
74637;BME280;63141;54.616;39.754;2023-04-01T22:47:14;99794.19;;;23.89;36.76
74637;BME280;63141;54.616;39.754;2023-04-01T22:57:07;99786.19;;;23.89;37.10
74637;BME280;63141;54.616;39.754;2023-04-01T23:00:14;99786.19;;;23.89;37.11
74637;BME280;63141;54.616;39.754;2023-04-01T23:03:31;99784.44;;;23.89;37.15
74637;BME280;63141;54.616;39.754;2023-04-01T23:06:43;99784.50;;;23.88;36.90
74637;BME280;63141;54.616;39.754;2023-04-01T23:09:54;99775.56;;;23.89;37.07
74637;BME280;63141;54.616;39.754;2023-04-01T23:12:59;99775.56;;;23.89;37.09
74637;BME280;63141;54.616;39.754;2023-04-01T23:16:09;99776.53;;;23.88;37.11
74637;BME280;63141;54.616;39.754;2023-04-01T23:19:35;99775.56;;;23.89;37.30
74637;BME280;63141;54.616;39.754;2023-04-01T23:23:09;99787.94;;;23.90;37.22
74637;BME280;63141;54.616;39.754;2023-04-01T23:26:43;99785.28;;;23.90;37.12
74637;BME280;63141;54.616;39.754;2023-04-01T23:29:51;99792.41;;;23.89;36.96
74637;BME280;63141;54.616;39.754;2023-04-01T23:32:53;99803.91;;;23.90;37.39
74637;BME280;63141;54.616;39.754;2023-04-01T23:36:10;99790.66;;;23.88;37.24
74637;BME280;63141;54.616;39.754;2023-04-01T23:42:40;99802.16;;;23.89;37.10
74637;BME280;63141;54.616;39.754;2023-04-01T23:45:51;99799.50;;;23.89;37.22
74637;BME280;63141;54.616;39.754;2023-04-01T23:48:53;99806.63;;;23.88;37.02
74637;BME280;63141;54.616;39.754;2023-04-01T23:52:17;99822.50;;;23.90;37.29
74637;BME280;63141;54.616;39.754;2023-04-01T23:55:31;99811.88;;;23.90;37.41
74637;BME280;63141;54.616;39.754;2023-04-01T23:58:48;99828.75;;;23.89;37.25
